Time;durP1;ratioP1;P1;durP2;ratioP2;P2;SDS_P1;SDS_P2;PMS_P1;PMS_P2;Temp;Humidity;BMP_temperature;BMP_pressure;BME280_temperature;BME280_humidity;BME280_pressure;Samples;Min_cycle;Max_cycle;Signal;HPM_P1;HPM_P2
2022/04/03 00:00:58;;;;;;;4.75;1.67;;;;;;;-141.50;100.00;63355.56;5102053;28;20079;-77
2022/04/03 00:03:25;;;;;;;8.80;2.00;;;;;;;-141.50;100.00;63355.56;5090678;28;20135;-76
2022/04/03 00:05:52;;;;;;;4.82;1.77;;;;;;;-141.50;100.00;63355.56;5091480;28;20087;-77
2022/04/03 00:08:18;;;;;;;4.72;2.10;;;;;;;-141.50;100.00;63355.56;5091951;28;20151;-78
2022/04/03 00:10:46;;;;;;;6.50;2.20;;;;;;;-141.50;100.00;63355.56;5098658;28;20050;-77
2022/04/03 00:13:12;;;;;;;9.48;1.90;;;;;;;-141.50;100.00;63355.56;5103687;28;20068;-76
2022/04/03 00:15:42;;;;;;;3.90;1.98;;;;;;;-141.50;100.00;63355.56;5110439;28;20064;-78
2022/04/03 00:18:09;;;;;;;7.07;2.00;;;;;;;-141.50;100.00;63355.56;5111588;28;20411;-76
2022/04/03 00:20:36;;;;;;;5.88;1.95;;;;;;;-141.50;100.00;63355.56;5111348;28;20495;-77
2022/04/03 00:23:04;;;;;;;4.72;2.20;;;;;;;-141.50;100.00;63355.56;5095201;28;20070;-76
2022/04/03 00:25:30;;;;;;;4.20;1.95;;;;;;;-141.50;100.00;63355.56;5112411;28;20487;-77
2022/04/03 00:27:57;;;;;;;4.13;1.92;;;;;;;-141.50;100.00;63355.56;5112140;28;20077;-76
2022/04/03 00:30:24;;;;;;;5.90;2.30;;;;;;;-141.50;100.00;63355.56;5110119;28;20096;-75
2022/04/03 00:32:50;;;;;;;5.40;1.85;;;;;;;-141.50;100.00;63355.56;5110779;28;20047;-76
2022/04/03 00:35:17;;;;;;;3.80;1.90;;;;;;;-141.50;100.00;63355.56;5110585;28;20051;-77
2022/04/03 00:37:43;;;;;;;5.40;2.05;;;;;;;-141.50;100.00;63355.56;5111847;28;20043;-77
2022/04/03 00:40:10;;;;;;;7.28;2.30;;;;;;;-141.50;100.00;63355.56;5111515;28;20197;-77
2022/04/03 00:42:38;;;;;;;6.97;2.08;;;;;;;-141.50;100.00;63355.56;5092964;28;20484;-76
2022/04/03 00:45:06;;;;;;;4.45;1.85;;;;;;;-141.50;100.00;63355.56;5110113;28;20090;-76
2022/04/03 00:47:33;;;;;;;6.57;1.95;;;;;;;-141.50;100.00;63355.56;5111707;28;20207;-76
2022/04/03 00:50:00;;;;;;;6.57;1.92;;;;;;;-141.50;100.00;63355.56;5093709;28;20048;-76
2022/04/03 00:52:27;;;;;;;5.10;1.95;;;;;;;-141.50;100.00;63355.56;5094256;28;20429;-75
2022/04/03 00:54:54;;;;;;;8.32;2.20;;;;;;;-141.50;100.00;63355.56;5093779;28;20055;-77
2022/04/03 00:57:22;;;;;;;5.00;2.13;;;;;;;-141.50;100.00;63355.56;5114358;28;20098;-75
2022/04/03 00:59:49;;;;;;;9.02;2.13;;;;;;;-141.50;100.00;63355.56;5117533;28;20116;-76
2022/04/03 01:02:17;;;;;;;4.55;2.00;;;;;;;-141.50;100.00;63355.56;5115330;28;20051;-76
2022/04/03 01:04:43;;;;;;;4.22;2.33;;;;;;;-141.50;100.00;63355.56;5112274;28;20120;-77
2022/04/03 01:07:16;;;;;;;4.97;1.98;;;;;;;-141.50;100.00;63355.56;5113589;28;20139;-76
2022/04/03 01:09:42;;;;;;;4.68;2.00;;;;;;;-141.50;100.00;63355.56;5109539;28;20075;-76
2022/04/03 01:12:10;;;;;;;5.18;2.03;;;;;;;-141.50;100.00;63355.56;5104050;28;20047;-76
2022/04/03 01:14:38;;;;;;;4.93;2.10;;;;;;;-141.50;100.00;63355.56;5112529;28;20127;-75
2022/04/03 01:17:07;;;;;;;4.97;1.92;;;;;;;-141.50;100.00;63355.56;5111958;28;20138;-76
2022/04/03 01:19:34;;;;;;;6.50;2.20;;;;;;;-141.50;100.00;63355.56;5111245;28;20145;-75
2022/04/03 01:22:00;;;;;;;4.55;2.00;;;;;;;-141.50;100.00;63355.56;5110710;28;20051;-75
2022/04/03 01:24:27;;;;;;;5.55;2.45;;;;;;;-141.50;100.00;63355.56;5112005;28;20055;-76
2022/04/03 01:26:53;;;;;;;6.38;1.90;;;;;;;-141.50;100.00;63355.56;5111647;28;20056;-76
2022/04/03 01:29:20;;;;;;;7.22;2.20;;;;;;;-141.50;100.00;63355.56;5111641;28;20483;-78
2022/04/03 01:31:47;;;;;;;5.32;2.00;;;;;;;-141.50;100.00;63355.56;5108861;28;20082;-77
2022/04/03 01:34:15;;;;;;;4.18;2.13;;;;;;;-141.50;100.00;63355.56;5110212;28;20100;-76
2022/04/03 01:36:42;;;;;;;6.97;2.72;;;;;;;-141.50;100.00;63355.56;5110448;28;20091;-76
2022/04/03 01:39:11;;;;;;;5.97;2.20;;;;;;;-141.50;100.00;63355.56;5111358;28;20112;-76
2022/04/03 01:41:39;;;;;;;6.20;2.40;;;;;;;-141.50;100.00;63355.56;5111233;28;20055;-75
2022/04/03 01:44:07;;;;;;;4.78;1.92;;;;;;;-141.50;100.00;63355.56;5110353;28;20097;-76
2022/04/03 01:46:34;;;;;;;6.38;2.22;;;;;;;-141.50;100.00;63355.56;5109273;28;20094;-76
2022/04/03 01:49:02;;;;;;;3.90;2.10;;;;;;;-141.50;100.00;63355.56;5109957;28;20154;-76
2022/04/03 01:51:28;;;;;;;5.80;2.55;;;;;;;-141.50;100.00;63355.56;5090757;28;20055;-75
2022/04/03 01:53:55;;;;;;;9.35;2.35;;;;;;;-141.50;100.00;63355.56;5107925;28;20677;-77
2022/04/03 01:56:21;;;;;;;5.55;2.00;;;;;;;-141.50;100.00;63355.56;5109762;28;20052;-77
2022/04/03 01:58:48;;;;;;;6.80;2.42;;;;;;;-141.50;100.00;63355.56;5110243;28;20043;-77
2022/04/03 02:01:14;;;;;;;8.48;2.50;;;;;;;-141.50;100.00;63355.56;5108697;28;20067;-77
2022/04/03 02:03:41;;;;;;;8.20;2.47;;;;;;;-141.50;100.00;63355.56;5114226;28;20047;-76
2022/04/03 02:06:08;;;;;;;7.05;2.25;;;;;;;-141.50;100.00;63355.56;5129339;28;20035;-78
2022/04/03 02:08:34;;;;;;;3.60;1.90;;;;;;;-141.50;100.00;63355.56;5117855;28;20051;-76
2022/04/03 02:11:01;;;;;;;7.95;2.67;;;;;;;-141.50;100.00;63355.56;5103334;28;20055;-75
2022/04/03 02:13:27;;;;;;;6.65;2.30;;;;;;;-141.50;100.00;63355.56;5103566;28;20081;-75
2022/04/03 02:15:54;;;;;;;8.95;2.60;;;;;;;-141.50;100.00;63355.56;5110619;28;20048;-75
2022/04/03 02:18:20;;;;;;;5.88;2.30;;;;;;;-141.50;100.00;63355.56;5093468;28;20050;-76
2022/04/03 02:20:47;;;;;;;7.20;2.38;;;;;;;-141.50;100.00;63355.56;5108832;28;20517;-78
2022/04/03 02:23:14;;;;;;;6.47;1.98;;;;;;;-141.50;100.00;63355.56;5109951;28;20549;-77
2022/04/03 02:25:40;;;;;;;5.75;2.15;;;;;;;-141.50;100.00;63355.56;5108246;28;20092;-77
2022/04/03 02:28:09;;;;;;;7.63;2.20;;;;;;;-141.50;100.00;63355.56;5109699;28;20086;-75
2022/04/03 02:30:36;;;;;;;7.95;2.20;;;;;;;-141.50;100.00;63355.56;5107486;28;20074;-76
2022/04/03 02:33:03;;;;;;;6.03;2.20;;;;;;;-141.50;100.00;63355.56;5108657;28;20092;-78
2022/04/03 02:35:29;;;;;;;9.80;2.30;;;;;;;-141.50;100.00;63355.56;5107970;28;20124;-78
2022/04/03 02:37:56;;;;;;;5.43;2.10;;;;;;;-141.50;100.00;63355.56;5091255;28;20097;-78
2022/04/03 02:40:22;;;;;;;3.95;1.90;;;;;;;-141.50;100.00;63355.56;5108166;28;20108;-77
2022/04/03 02:42:52;;;;;;;9.00;2.08;;;;;;;-141.50;100.00;63355.56;5108685;28;20047;-77
2022/04/03 02:45:18;;;;;;;10.43;2.20;;;;;;;-141.50;100.00;63355.56;5108172;28;20051;-75
2022/04/03 02:47:50;;;;;;;4.43;2.30;;;;;;;-141.50;100.00;63355.56;5108764;28;20521;-75
2022/04/03 02:50:17;;;;;;;3.90;1.80;;;;;;;-141.50;100.00;63355.56;5117597;28;20083;-77
2022/04/03 02:52:44;;;;;;;8.68;2.30;;;;;;;-141.50;100.00;63355.56;5123321;28;20096;-76
2022/04/03 02:55:11;;;;;;;6.72;1.83;;;;;;;-141.50;100.00;63355.56;5118672;28;20059;-76
2022/04/03 02:57:37;;;;;;;6.97;2.67;;;;;;;-141.50;100.00;63355.56;5110327;28;20047;-78
2022/04/03 03:00:06;;;;;;;6.88;2.35;;;;;;;-141.50;100.00;63355.56;5109436;28;20512;-76
2022/04/03 03:02:32;;;;;;;3.75;1.90;;;;;;;-141.50;100.00;63355.56;5108446;28;20632;-76
2022/04/03 03:04:59;;;;;;;18.05;3.30;;;;;;;-141.50;100.00;63355.56;5108957;28;20058;-76
2022/04/03 03:07:36;;;;;;;5.20;2.05;;;;;;;-141.50;100.00;63355.56;5109389;28;20055;-76
2022/04/03 03:10:07;;;;;;;9.77;2.22;;;;;;;-141.50;100.00;63355.56;5105606;28;20051;-77
2022/04/03 03:12:34;;;;;;;6.57;2.45;;;;;;;-141.50;100.00;63355.56;5099729;28;20056;-77
2022/04/03 03:15:02;;;;;;;6.72;2.40;;;;;;;-141.50;100.00;63355.56;5109526;28;20043;-76
2022/04/03 03:17:29;;;;;;;7.68;2.38;;;;;;;-141.50;100.00;63355.56;5108896;28;20077;-77
2022/04/03 03:19:58;;;;;;;8.80;2.53;;;;;;;-141.50;100.00;63355.56;5109775;28;20452;-76
2022/04/03 03:22:25;;;;;;;9.60;2.10;;;;;;;-141.50;100.00;63355.56;5090946;28;20395;-75
2022/04/03 03:24:52;;;;;;;6.07;2.25;;;;;;;-141.50;100.00;63355.56;5110967;28;20066;-76
2022/04/03 03:27:19;;;;;;;8.35;2.28;;;;;;;-141.50;100.00;63355.56;5113487;28;20051;-76
2022/04/03 03:29:45;;;;;;;8.27;2.42;;;;;;;-141.50;100.00;63355.56;5112788;28;20075;-77
2022/04/03 03:32:14;;;;;;;11.57;2.88;;;;;;;-141.50;100.00;63355.56;5113333;28;20101;-77
2022/04/03 03:34:44;;;;;;;7.63;2.35;;;;;;;-141.50;100.00;63355.56;5112984;28;20079;-75
2022/04/03 03:37:10;;;;;;;7.65;2.33;;;;;;;-141.50;100.00;63355.56;5112748;28;20047;-76
2022/04/03 03:39:37;;;;;;;9.43;2.83;;;;;;;-141.50;100.00;63355.56;5112285;28;20058;-76
2022/04/03 03:42:03;;;;;;;9.65;2.70;;;;;;;-141.50;100.00;63355.56;5112403;28;20517;-76
2022/04/03 03:44:30;;;;;;;5.82;2.40;;;;;;;-141.50;100.00;63355.56;5112937;28;20069;-77
2022/04/03 03:46:57;;;;;;;6.20;2.60;;;;;;;-141.50;100.00;63355.56;5114716;28;20101;-77
2022/04/03 03:49:23;;;;;;;11.60;2.67;;;;;;;-141.50;100.00;63355.56;5124216;28;20104;-76
2022/04/03 03:51:50;;;;;;;6.50;2.55;;;;;;;-141.50;100.00;63355.56;5124820;28;20104;-76
2022/04/03 03:54:17;;;;;;;7.25;3.30;;;;;;;-141.50;100.00;63355.56;5125005;28;20052;-76
2022/04/03 03:56:49;;;;;;;7.22;2.72;;;;;;;-141.50;100.00;63355.56;5117676;28;20055;-77
2022/04/03 03:59:16;;;;;;;5.65;2.90;;;;;;;-141.50;100.00;63355.56;5092959;28;20040;-77
2022/04/03 04:01:42;;;;;;;11.50;3.00;;;;;;;-141.50;100.00;63355.56;5093034;28;20596;-76
2022/04/03 04:04:09;;;;;;;10.50;2.97;;;;;;;-141.50;100.00;63355.56;5093428;28;20092;-76
2022/04/03 04:06:35;;;;;;;11.35;3.15;;;;;;;-141.50;100.00;63355.56;5092769;28;20043;-76
2022/04/03 04:09:05;;;;;;;11.20;2.97;;;;;;;-141.50;100.00;63355.56;5091780;28;20048;-77
2022/04/03 04:11:31;;;;;;;6.50;2.65;;;;;;;-141.50;100.00;63355.56;5099517;28;20056;-76
2022/04/03 04:13:58;;;;;;;8.18;2.92;;;;;;;-141.50;100.00;63355.56;5111066;28;20491;-76
2022/04/03 04:16:25;;;;;;;9.45;3.13;;;;;;;-141.50;100.00;63355.56;5111683;28;20043;-77
2022/04/03 04:18:51;;;;;;;7.10;3.15;;;;;;;-141.50;100.00;63355.56;5112308;28;20051;-75
2022/04/03 04:21:18;;;;;;;5.97;3.00;;;;;;;-141.50;100.00;63355.56;5111419;28;20575;-77
2022/04/03 04:23:45;;;;;;;5.68;2.63;;;;;;;-141.50;100.00;63355.56;5095404;28;20051;-77
2022/04/03 04:26:13;;;;;;;11.80;2.85;;;;;;;-141.50;100.00;63355.56;5096351;28;20113;-76
2022/04/03 04:28:40;;;;;;;13.05;3.00;;;;;;;-141.50;100.00;63355.56;5093232;28;20040;-77
2022/04/03 04:31:06;;;;;;;9.68;3.05;;;;;;;-141.50;100.00;63355.56;5097280;28;20075;-77
2022/04/03 04:33:33;;;;;;;10.82;3.47;;;;;;;-141.50;100.00;63355.56;5097410;28;20462;-77
2022/04/03 04:36:00;;;;;;;11.57;3.85;;;;;;;-141.50;100.00;63355.56;5090254;28;20048;-77
2022/04/03 04:38:27;;;;;;;10.45;4.22;;;;;;;-141.50;100.00;63355.56;5091036;28;20044;-76
2022/04/03 04:40:54;;;;;;;10.75;4.35;;;;;;;-141.50;100.00;63355.56;5090053;28;20044;-76
2022/04/03 04:43:21;;;;;;;11.45;4.53;;;;;;;-141.50;100.00;63355.56;5088561;28;20043;-76
2022/04/03 04:45:50;;;;;;;13.38;4.75;;;;;;;-141.50;100.00;63355.56;5090880;28;20112;-76
2022/04/03 04:48:20;;;;;;;9.85;3.70;;;;;;;-141.50;100.00;63355.56;5091398;28;20470;-75
2022/04/03 04:50:47;;;;;;;7.00;3.30;;;;;;;-141.50;100.00;63355.56;5089480;28;20048;-76
2022/04/03 04:53:19;;;;;;;5.55;2.75;;;;;;;-141.50;100.00;63355.56;5091240;28;20094;-75
2022/04/03 04:55:45;;;;;;;9.10;2.72;;;;;;;-141.50;100.00;63355.56;5088502;28;20159;-75
2022/04/03 04:58:12;;;;;;;12.80;3.72;;;;;;;-141.50;100.00;63355.56;5089816;28;20060;-76
2022/04/03 05:00:39;;;;;;;8.95;3.20;;;;;;;-141.50;100.00;63355.56;5089837;28;20075;-76
2022/04/03 05:03:05;;;;;;;9.13;3.60;;;;;;;-141.50;100.00;63355.56;5090112;28;20052;-76
2022/04/03 05:05:32;;;;;;;8.52;3.15;;;;;;;-141.50;100.00;63355.56;5090826;28;20428;-76
2022/04/03 05:08:00;;;;;;;7.00;3.10;;;;;;;-141.50;100.00;63355.56;5090797;28;20044;-74
2022/04/03 05:10:29;;;;;;;8.20;3.33;;;;;;;-141.50;100.00;63355.56;5096551;28;20077;-77
2022/04/03 05:12:57;;;;;;;10.48;3.42;;;;;;;-141.50;100.00;63355.56;5092058;28;20052;-76
2022/04/03 05:15:23;;;;;;;9.48;3.42;;;;;;;-141.50;100.00;63355.56;5089847;28;20072;-74
2022/04/03 05:17:50;;;;;;;11.27;4.13;;;;;;;-141.50;100.00;63355.56;5090117;28;20044;-76
2022/04/03 05:20:17;;;;;;;7.47;3.50;;;;;;;-141.50;100.00;63355.56;5089582;28;20087;-76
2022/04/03 05:22:43;;;;;;;7.22;3.35;;;;;;;-141.50;100.00;63355.56;5089740;28;20079;-77
2022/04/03 05:25:11;;;;;;;9.13;3.38;;;;;;;-141.50;100.00;63355.56;5088489;28;20091;-77
2022/04/03 05:27:39;;;;;;;11.43;3.38;;;;;;;-141.50;100.00;63355.56;5090018;28;20048;-75
2022/04/03 05:30:07;;;;;;;8.05;3.55;;;;;;;-141.50;100.00;63355.56;5089567;28;20044;-74
2022/04/03 05:32:36;;;;;;;8.93;3.42;;;;;;;-141.50;100.00;63355.56;5089390;28;20563;-77
2022/04/03 05:35:04;;;;;;;9.05;3.15;;;;;;;-141.50;100.00;63355.56;5087905;28;20500;-77
2022/04/03 05:37:30;;;;;;;5.30;2.53;;;;;;;-141.50;100.00;63355.56;5096904;28;20079;-77
2022/04/03 05:39:58;;;;;;;9.32;2.80;;;;;;;-141.50;100.00;63355.56;5083382;28;20495;-77
2022/04/03 05:42:25;;;;;;;7.07;3.22;;;;;;;-141.50;100.00;63355.56;5091760;28;20044;-76
2022/04/03 05:44:51;;;;;;;5.90;2.72;;;;;;;-141.50;100.00;63355.56;5087761;28;20095;-77
2022/04/03 05:47:18;;;;;;;10.63;3.28;;;;;;;-141.50;100.00;63355.56;5089456;28;20508;-77
2022/04/03 05:49:45;;;;;;;10.20;3.20;;;;;;;-141.50;100.00;63355.56;5089682;28;20056;-76
2022/04/03 05:52:12;;;;;;;9.55;2.97;;;;;;;-141.50;100.00;63355.56;5088945;28;20066;-75
2022/04/03 05:54:38;;;;;;;8.27;3.45;;;;;;;-141.50;100.00;63355.56;5071098;28;20636;-77
2022/04/03 05:57:10;;;;;;;10.00;3.13;;;;;;;-141.50;100.00;63355.56;5089439;28;20101;-76
2022/04/03 05:59:36;;;;;;;8.93;2.90;;;;;;;-141.50;100.00;63355.56;5088899;28;20086;-77
2022/04/03 06:02:07;;;;;;;7.00;2.80;;;;;;;-141.50;100.00;63355.56;5094754;28;20115;-77
2022/04/03 06:04:33;;;;;;;7.55;2.95;;;;;;;-141.50;100.00;63355.56;5114390;28;20506;-79
2022/04/03 06:07:00;;;;;;;9.02;3.08;;;;;;;-141.50;100.00;63355.56;5111749;28;20056;-77
2022/04/03 06:09:26;;;;;;;9.10;3.70;;;;;;;-141.50;100.00;63355.56;5089668;28;20127;-76
2022/04/03 06:11:54;;;;;;;4.93;2.78;;;;;;;-141.50;100.00;63355.56;5098173;28;20117;-77
2022/04/03 06:14:20;;;;;;;5.68;2.63;;;;;;;-141.50;100.00;63355.56;5089693;28;20052;-76
2022/04/03 06:16:48;;;;;;;7.70;3.03;;;;;;;-141.50;100.00;63355.56;5089064;28;20083;-76
2022/04/03 06:19:14;;;;;;;11.43;3.63;;;;;;;-141.50;100.00;63355.56;5088437;28;20063;-76
2022/04/03 06:21:41;;;;;;;13.65;3.33;;;;;;;-141.50;100.00;63355.56;5088214;28;20485;-76
2022/04/03 06:24:08;;;;;;;5.95;2.70;;;;;;;-141.50;100.00;63355.56;5090005;28;20052;-76
2022/04/03 06:26:34;;;;;;;8.93;3.25;;;;;;;-141.50;100.00;63355.56;5091103;28;20044;-75
2022/04/03 06:29:04;;;;;;;8.40;2.85;;;;;;;-141.50;100.00;63355.56;5089796;28;20468;-76
2022/04/03 06:31:31;;;;;;;6.35;2.42;;;;;;;-141.50;100.00;63355.56;5087351;28;20052;-76
2022/04/03 06:33:58;;;;;;;5.60;2.33;;;;;;;-141.50;100.00;63355.56;5088006;28;20116;-76
2022/04/03 06:36:24;;;;;;;10.65;2.70;;;;;;;-141.50;100.00;63355.56;5089026;28;20052;-77
2022/04/03 06:39:03;;;;;;;5.90;2.72;;;;;;;-141.50;100.00;63355.56;5089312;28;20052;-77
2022/04/03 06:41:32;;;;;;;6.40;2.70;;;;;;;-141.50;100.00;63355.56;5086559;28;20440;-76
2022/04/03 06:44:00;;;;;;;6.97;2.53;;;;;;;-141.50;100.00;63355.56;5078644;28;20078;-74
2022/04/03 06:46:26;;;;;;;5.93;2.63;;;;;;;-141.50;100.00;63355.56;5086670;28;20059;-76
2022/04/03 06:48:53;;;;;;;12.68;2.72;;;;;;;-141.50;100.00;63355.56;5070709;28;20048;-77
2022/04/03 06:51:19;;;;;;;5.65;2.60;;;;;;;-141.50;100.00;63355.56;5088843;28;20071;-76
2022/04/03 06:53:49;;;;;;;4.88;2.60;;;;;;;-141.50;100.00;63355.56;5091631;28;20047;-78
2022/04/03 06:56:19;;;;;;;7.55;2.58;;;;;;;-141.50;100.00;63355.56;5088937;28;20084;-77
2022/04/03 06:58:46;;;;;;;8.25;2.70;;;;;;;-141.50;100.00;63355.56;5074054;28;20091;-76
2022/04/03 07:01:13;;;;;;;7.57;2.63;;;;;;;-141.50;100.00;63355.56;5066679;28;20188;-75
2022/04/03 07:03:39;;;;;;;7.53;2.72;;;;;;;-141.50;100.00;63355.56;5091755;28;20060;-76
2022/04/03 07:06:06;;;;;;;10.70;3.20;;;;;;;-141.50;100.00;63355.56;5088504;28;20059;-76
2022/04/03 07:08:33;;;;;;;6.93;2.72;;;;;;;-141.50;100.00;63355.56;5093486;28;20048;-77
2022/04/03 07:10:59;;;;;;;6.80;2.70;;;;;;;-141.50;100.00;63355.56;5091421;28;20048;-79
2022/04/03 07:13:26;;;;;;;9.35;2.83;;;;;;;-141.50;100.00;63355.56;5093469;28;20100;-76
2022/04/03 07:15:52;;;;;;;4.78;2.65;;;;;;;-141.50;100.00;63355.56;5092014;28;20105;-77
2022/04/03 07:18:19;;;;;;;7.22;2.70;;;;;;;-141.50;100.00;63355.56;5086022;28;20058;-76
2022/04/03 07:20:48;;;;;;;9.30;2.50;;;;;;;-141.50;100.00;63355.56;5083327;28;20051;-77
2022/04/03 07:23:14;;;;;;;5.55;2.45;;;;;;;-141.50;100.00;63355.56;5085370;28;20059;-76
2022/04/03 07:25:41;;;;;;;5.90;3.00;;;;;;;-141.50;100.00;63355.56;5083673;28;20108;-74
2022/04/03 07:28:07;;;;;;;5.30;2.30;;;;;;;-141.50;100.00;63355.56;5083344;28;20098;-77
2022/04/03 07:30:34;;;;;;;10.20;2.60;;;;;;;-141.50;100.00;63355.56;5084526;28;20151;-76
2022/04/03 07:33:01;;;;;;;5.25;2.63;;;;;;;-141.50;100.00;63355.56;5088113;28;20056;-75
2022/04/03 07:35:27;;;;;;;4.43;2.30;;;;;;;-141.50;100.00;63355.56;5083510;28;20127;-76
2022/04/03 07:37:53;;;;;;;9.38;2.58;;;;;;;-141.50;100.00;63355.56;5065048;28;20139;-75
2022/04/03 07:40:20;;;;;;;9.88;2.63;;;;;;;-141.50;100.00;63355.56;5084270;28;20420;-75
2022/04/03 07:43:07;;;;;;;7.75;2.58;;;;;;;-141.50;100.00;63355.56;5082172;28;20055;-75
2022/04/03 07:45:33;;;;;;;5.85;2.65;;;;;;;-141.50;100.00;63355.56;5079823;28;20051;-76
2022/04/03 07:48:00;;;;;;;5.85;2.30;;;;;;;-141.50;100.00;63355.56;5083216;28;20462;-76
2022/04/03 07:50:27;;;;;;;8.32;2.30;;;;;;;-141.50;100.00;63355.56;5065250;28;20044;-75
2022/04/03 07:52:53;;;;;;;7.50;2.45;;;;;;;-141.50;100.00;63355.56;5083225;28;20056;-77
2022/04/03 07:55:20;;;;;;;5.18;2.40;;;;;;;-141.50;100.00;63355.56;5082305;28;20499;-78
2022/04/03 07:57:47;;;;;;;6.05;2.25;;;;;;;-141.50;100.00;63355.56;5088105;28;20072;-76
2022/04/03 08:00:14;;;;;;;6.15;2.05;;;;;;;-141.50;100.00;63355.56;5086066;28;20521;-77
2022/04/03 08:02:41;;;;;;;4.90;2.00;;;;;;;-141.50;100.00;63355.56;5086129;28;20609;-76
2022/04/03 08:05:09;;;;;;;5.82;1.90;;;;;;;-141.50;100.00;63355.56;5087440;28;20043;-75
2022/04/03 08:07:45;;;;;;;5.72;2.00;;;;;;;-141.50;100.00;63355.56;5089519;28;20087;-76
2022/04/03 08:10:14;;;;;;;8.70;2.42;;;;;;;-141.50;100.00;63355.56;5086791;28;20043;-77
2022/04/03 08:12:43;;;;;;;7.47;2.38;;;;;;;-141.50;100.00;63355.56;5103316;28;20081;-76
2022/04/03 08:15:11;;;;;;;4.00;2.00;;;;;;;-141.50;100.00;63355.56;5110562;28;20063;-77
2022/04/03 08:17:38;;;;;;;4.30;1.90;;;;;;;-141.50;100.00;63355.56;5110276;28;20087;-75
2022/04/03 08:20:16;;;;;;;5.32;1.80;;;;;;;-141.50;100.00;63355.56;5075120;28;20492;-76
2022/04/03 08:22:49;;;;;;;6.85;2.10;;;;;;;-141.50;100.00;63355.56;5090231;28;20079;-76
2022/04/03 08:25:16;;;;;;;6.38;1.63;;;;;;;-141.50;100.00;63355.56;5082068;28;20138;-75
2022/04/03 08:27:50;;;;;;;3.55;1.70;;;;;;;-141.50;100.00;63355.56;5088867;28;20105;-75
2022/04/03 08:30:20;;;;;;;3.38;1.60;;;;;;;-141.50;100.00;63355.56;5089652;28;20044;-76
2022/04/03 08:32:47;;;;;;;5.18;2.10;;;;;;;-141.50;100.00;63355.56;5088766;28;20529;-75
2022/04/03 08:35:14;;;;;;;6.50;1.98;;;;;;;-141.50;100.00;63355.56;5090898;28;20087;-76
2022/04/03 08:37:42;;;;;;;6.03;2.00;;;;;;;-141.50;100.00;63355.56;5090838;28;20055;-76
2022/04/03 08:40:14;;;;;;;4.63;1.77;;;;;;;-141.50;100.00;63355.56;5090544;28;20048;-75
2022/04/03 08:42:41;;;;;;;5.55;2.00;;;;;;;-141.50;100.00;63355.56;5089904;28;20074;-76
2022/04/03 08:45:11;;;;;;;4.07;1.63;;;;;;;-141.50;100.00;63355.56;5089456;28;20047;-76
2022/04/03 08:47:52;;;;;;;4.97;2.00;;;;;;;-141.50;100.00;63355.56;5085617;28;20040;-76
2022/04/03 08:50:23;;;;;;;4.60;1.70;;;;;;;-141.50;100.00;63355.56;5089375;28;20073;-76
2022/04/03 08:52:51;;;;;;;6.18;1.90;;;;;;;-141.50;100.00;63355.56;5089700;28;20564;-74
2022/04/03 08:55:20;;;;;;;5.05;1.75;;;;;;;-141.50;100.00;63355.56;5090294;28;20399;-75
2022/04/03 08:57:50;;;;;;;4.13;1.80;;;;;;;-141.50;100.00;63355.56;5092576;28;20102;-75
2022/04/03 09:00:17;;;;;;;4.13;1.80;;;;;;;-141.50;100.00;63355.56;5090512;28;20457;-75
2022/04/03 09:02:47;;;;;;;5.90;1.85;;;;;;;-141.50;100.00;63355.56;5090562;28;20047;-76
2022/04/03 09:05:14;;;;;;;3.40;1.75;;;;;;;-141.50;100.00;63355.56;5093055;28;20044;-75
2022/04/03 09:07:42;;;;;;;6.38;2.30;;;;;;;-141.50;100.00;63355.56;5096587;28;20056;-75
2022/04/03 09:10:13;;;;;;;4.75;1.98;;;;;;;-141.50;100.00;63355.56;5111230;28;20054;-74
2022/04/03 09:12:48;;;;;;;4.78;1.83;;;;;;;-141.50;100.00;63355.56;5109824;28;20051;-75
2022/04/03 09:15:17;;;;;;;4.95;1.70;;;;;;;-141.50;100.00;63355.56;5129577;28;20056;-75
2022/04/03 09:17:45;;;;;;;6.10;1.73;;;;;;;-141.50;100.00;63355.56;5131554;28;20055;-76
2022/04/03 09:20:14;;;;;;;5.72;2.05;;;;;;;-141.50;100.00;63355.56;5118959;28;20047;-76
2022/04/03 09:22:45;;;;;;;5.40;2.15;;;;;;;-141.50;100.00;63355.56;5109794;28;20400;-76
2022/04/03 09:25:15;;;;;;;8.35;2.20;;;;;;;-141.50;100.00;63355.56;5111469;28;20412;-76
2022/04/03 09:27:56;;;;;;;46.45;10.38;;;;;;;-141.50;100.00;63355.56;5111710;28;20429;-75
2022/04/03 09:30:31;;;;;;;2.97;1.70;;;;;;;-141.50;100.00;63355.56;5092281;28;20047;-75
2022/04/03 09:32:59;;;;;;;2.95;1.50;;;;;;;-141.50;100.00;63355.56;5110092;28;20087;-76
2022/04/03 09:35:29;;;;;;;3.67;1.73;;;;;;;-141.50;100.00;63355.56;5110263;28;20073;-76
2022/04/03 09:38:05;;;;;;;3.88;1.77;;;;;;;-141.50;100.00;63355.56;5110839;28;20124;-75
2022/04/03 09:40:32;;;;;;;;;;;;;;;-141.50;100.00;63355.56;5115275;28;20055;-77
2022/04/03 09:43:14;;;;;;;7.18;1.80;;;;;;;-141.50;100.00;63355.56;5114838;28;19962;-77
2022/04/03 09:45:50;;;;;;;3.92;1.88;;;;;;;-141.50;100.00;63355.56;5097173;28;20473;-76
2022/04/03 09:48:23;;;;;;;6.05;1.90;;;;;;;-141.50;100.00;63355.56;5114830;28;20168;-73
2022/04/03 09:51:03;;;;;;;3.35;1.40;;;;;;;-141.50;100.00;63355.56;5093077;28;20039;-76
2022/04/03 09:53:44;;;;;;;4.45;1.40;;;;;;;-141.50;100.00;63355.56;5111054;28;20148;-75
2022/04/03 09:56:13;;;;;;;3.67;1.50;;;;;;;-141.50;100.00;63355.56;5110407;28;20071;-77
2022/04/03 09:58:49;;;;;;;5.40;1.30;;;;;;;-141.50;100.00;63355.56;5110480;28;20051;-76
2022/04/03 10:01:39;;;;;;;2.35;1.10;;;;;;;-141.50;100.00;63355.56;5108646;28;20057;-76
2022/04/03 10:04:09;;;;;;;4.97;1.10;;;;;;;-141.50;100.00;63355.56;5109867;28;20051;-77
2022/04/03 10:06:38;;;;;;;1.90;1.05;;;;;;;-141.50;100.00;63355.56;5092311;28;20047;-75
2022/04/03 10:09:11;;;;;;;25.48;9.55;;;;;;;-141.50;100.00;63355.56;5109663;28;20056;-75
2022/04/03 10:11:39;;;;;;;3.05;1.08;;;;;;;-141.50;100.00;63355.56;5097668;28;20050;-76
2022/04/03 10:14:06;;;;;;;2.47;1.30;;;;;;;-141.50;100.00;63355.56;5051644;28;20059;-76
2022/04/03 10:16:32;;;;;;;3.65;1.20;;;;;;;-141.50;100.00;63355.56;5068613;28;20090;-76
2022/04/03 10:19:00;;;;;;;1.73;1.10;;;;;;;-141.50;100.00;63355.56;5069325;28;20062;-76
2022/04/03 10:21:38;;;;;;;10.68;3.78;;;;;;;-141.50;100.00;63355.56;5050532;28;20114;-76
2022/04/03 10:24:15;;;;;;;13.52;4.72;;;;;;;-141.50;100.00;63355.56;5069635;28;20463;-75
2022/04/03 10:26:46;;;;;;;2.35;1.13;;;;;;;-141.50;100.00;63355.56;5072987;28;20477;-76
2022/04/03 10:29:13;;;;;;;7.78;2.83;;;;;;;-141.50;100.00;63355.56;5069101;28;20048;-75
2022/04/03 10:31:55;;;;;;;2.13;0.80;;;;;;;-141.50;100.00;63355.56;5067763;28;20098;-76
2022/04/03 10:34:22;;;;;;;2.05;0.90;;;;;;;-141.50;100.00;63355.56;5067896;28;20057;-75
2022/04/03 10:36:51;;;;;;;4.90;1.58;;;;;;;-141.50;100.00;63355.56;5069333;28;20052;-76
2022/04/03 10:39:26;;;;;;;2.38;1.10;;;;;;;-141.50;100.00;63355.56;5069004;28;20053;-76
2022/04/03 10:42:24;;;;;;;2.72;1.10;;;;;;;-141.50;100.00;63355.56;5068609;28;20055;-76
2022/04/03 10:45:28;;;;;;;2.05;1.02;;;;;;;-141.50;100.00;63355.56;5068665;28;20133;-75
2022/04/03 10:48:20;;;;;;;3.78;1.20;;;;;;;-141.50;100.00;63355.56;4987044;28;20062;-75
2022/04/03 10:51:05;;;;;;;3.42;1.30;;;;;;;-141.50;100.00;63355.56;5066601;28;20144;-76
2022/04/03 10:53:39;;;;;;;3.10;1.33;;;;;;;-141.50;100.00;63355.56;5068835;28;20052;-76
2022/04/03 10:56:19;;;;;;;3.28;1.10;;;;;;;-141.50;100.00;63355.56;5069291;28;20086;-76
2022/04/03 10:58:51;;;;;;;2.80;1.50;;;;;;;-141.50;100.00;63355.56;5069209;28;20074;-76
2022/04/03 11:01:25;;;;;;;3.08;1.27;;;;;;;-141.50;100.00;63355.56;5067622;28;20076;-76
2022/04/03 11:03:57;;;;;;;2.28;1.17;;;;;;;-141.50;100.00;63355.56;5068263;28;20090;-77
2022/04/03 11:06:26;;;;;;;3.15;1.30;;;;;;;-141.50;100.00;63355.56;5050755;28;20079;-75
2022/04/03 11:08:55;;;;;;;2.47;1.38;;;;;;;-141.50;100.00;63355.56;5068752;28;20060;-76
2022/04/03 11:11:50;;;;;;;3.42;1.58;;;;;;;-141.50;100.00;63355.56;5094711;28;20052;-76
2022/04/03 11:14:52;;;;;;;7.32;1.35;;;;;;;-141.50;100.00;63355.56;5066059;28;20080;-76
2022/04/03 11:17:39;;;;;;;3.30;1.50;;;;;;;-141.50;100.00;63355.56;5067475;28;20066;-76